sensor_id;sensor_type;location;lat;lon;timestamp;P1;durP1;ratioP1;P2;durP2;ratioP2
9080;SDS011;13509;50.760;6.080;2023-03-05T00:01:17;2.27;;;1.63;;
9080;SDS011;13509;50.760;6.080;2023-03-05T00:03:47;8.07;;;1.90;;
9080;SDS011;13509;50.760;6.080;2023-03-05T00:06:17;4.20;;;1.60;;
9080;SDS011;13509;50.760;6.080;2023-03-05T00:08:46;3.63;;;1.63;;
9080;SDS011;13509;50.760;6.080;2023-03-05T00:11:15;7.50;;;1.37;;
9080;SDS011;13509;50.760;6.080;2023-03-05T00:13:43;4.13;;;1.50;;
9080;SDS011;13509;50.760;6.080;2023-03-05T00:16:12;9.30;;;1.43;;
9080;SDS011;13509;50.760;6.080;2023-03-05T00:18:41;7.23;;;1.63;;
9080;SDS011;13509;50.760;6.080;2023-03-05T00:21:16;4.37;;;1.63;;
9080;SDS011;13509;50.760;6.080;2023-03-05T00:23:45;3.67;;;1.33;;
9080;SDS011;13509;50.760;6.080;2023-03-05T00:26:17;8.50;;;1.60;;
9080;SDS011;13509;50.760;6.080;2023-03-05T00:28:45;4.60;;;1.40;;
9080;SDS011;13509;50.760;6.080;2023-03-05T00:31:15;6.70;;;1.80;;
9080;SDS011;13509;50.760;6.080;2023-03-05T00:33:43;4.47;;;1.60;;
9080;SDS011;13509;50.760;6.080;2023-03-05T00:36:11;4.73;;;1.33;;
9080;SDS011;13509;50.760;6.080;2023-03-05T00:38:39;5.60;;;1.50;;
9080;SDS011;13509;50.760;6.080;2023-03-05T00:41:07;5.23;;;1.37;;
9080;SDS011;13509;50.760;6.080;2023-03-05T00:43:37;4.70;;;1.70;;
9080;SDS011;13509;50.760;6.080;2023-03-05T00:46:05;3.03;;;1.20;;
9080;SDS011;13509;50.760;6.080;2023-03-05T00:48:33;3.50;;;1.67;;
9080;SDS011;13509;50.760;6.080;2023-03-05T00:51:02;3.43;;;1.50;;
9080;SDS011;13509;50.760;6.080;2023-03-05T00:53:30;3.90;;;1.63;;
9080;SDS011;13509;50.760;6.080;2023-03-05T00:55:58;5.77;;;1.07;;
9080;SDS011;13509;50.760;6.080;2023-03-05T00:58:26;5.77;;;1.63;;
9080;SDS011;13509;50.760;6.080;2023-03-05T01:00:57;7.37;;;1.47;;
9080;SDS011;13509;50.760;6.080;2023-03-05T01:03:26;5.17;;;1.67;;
9080;SDS011;13509;50.760;6.080;2023-03-05T01:05:56;5.40;;;1.63;;
9080;SDS011;13509;50.760;6.080;2023-03-05T01:08:24;3.00;;;1.47;;
9080;SDS011;13509;50.760;6.080;2023-03-05T01:10:52;5.53;;;1.50;;
9080;SDS011;13509;50.760;6.080;2023-03-05T01:13:21;4.43;;;1.73;;
9080;SDS011;13509;50.760;6.080;2023-03-05T01:15:49;5.33;;;1.40;;
9080;SDS011;13509;50.760;6.080;2023-03-05T01:18:19;4.10;;;1.40;;
9080;SDS011;13509;50.760;6.080;2023-03-05T01:20:47;3.87;;;1.53;;
9080;SDS011;13509;50.760;6.080;2023-03-05T01:23:15;2.90;;;1.43;;
9080;SDS011;13509;50.760;6.080;2023-03-05T01:25:44;6.37;;;1.47;;
9080;SDS011;13509;50.760;6.080;2023-03-05T01:28:12;3.97;;;1.47;;
9080;SDS011;13509;50.760;6.080;2023-03-05T01:30:40;5.20;;;1.87;;
9080;SDS011;13509;50.760;6.080;2023-03-05T01:33:08;5.13;;;1.80;;
9080;SDS011;13509;50.760;6.080;2023-03-05T01:35:37;3.50;;;1.60;;
9080;SDS011;13509;50.760;6.080;2023-03-05T01:38:06;9.87;;;1.90;;
9080;SDS011;13509;50.760;6.080;2023-03-05T01:40:34;3.90;;;1.73;;
9080;SDS011;13509;50.760;6.080;2023-03-05T01:43:07;3.00;;;1.30;;
9080;SDS011;13509;50.760;6.080;2023-03-05T01:48:25;4.93;;;1.80;;
9080;SDS011;13509;50.760;6.080;2023-03-05T01:50:55;5.90;;;1.60;;
9080;SDS011;13509;50.760;6.080;2023-03-05T01:53:24;7.03;;;1.63;;
9080;SDS011;13509;50.760;6.080;2023-03-05T01:55:52;9.23;;;2.00;;
9080;SDS011;13509;50.760;6.080;2023-03-05T01:58:21;8.13;;;2.43;;
9080;SDS011;13509;50.760;6.080;2023-03-05T02:00:51;6.13;;;2.17;;
9080;SDS011;13509;50.760;6.080;2023-03-05T02:03:19;6.37;;;1.63;;
9080;SDS011;13509;50.760;6.080;2023-03-05T02:05:49;4.40;;;1.73;;
9080;SDS011;13509;50.760;6.080;2023-03-05T02:08:20;8.40;;;2.40;;
9080;SDS011;13509;50.760;6.080;2023-03-05T02:10:49;6.23;;;2.03;;
9080;SDS011;13509;50.760;6.080;2023-03-05T02:13:18;7.43;;;1.60;;
9080;SDS011;13509;50.760;6.080;2023-03-05T02:15:47;5.47;;;1.73;;
9080;SDS011;13509;50.760;6.080;2023-03-05T02:18:16;8.73;;;2.03;;
9080;SDS011;13509;50.760;6.080;2023-03-05T02:20:45;6.33;;;1.73;;
9080;SDS011;13509;50.760;6.080;2023-03-05T02:23:16;5.33;;;2.23;;
9080;SDS011;13509;50.760;6.080;2023-03-05T02:25:44;4.27;;;2.00;;
9080;SDS011;13509;50.760;6.080;2023-03-05T02:28:14;6.67;;;2.10;;
9080;SDS011;13509;50.760;6.080;2023-03-05T02:30:43;7.53;;;2.33;;
9080;SDS011;13509;50.760;6.080;2023-03-05T02:33:12;4.53;;;2.17;;
9080;SDS011;13509;50.760;6.080;2023-03-05T02:35:40;7.43;;;2.30;;
9080;SDS011;13509;50.760;6.080;2023-03-05T02:38:09;7.33;;;2.30;;
9080;SDS011;13509;50.760;6.080;2023-03-05T02:40:39;5.77;;;2.53;;
9080;SDS011;13509;50.760;6.080;2023-03-05T02:43:08;7.27;;;2.10;;
9080;SDS011;13509;50.760;6.080;2023-03-05T02:45:36;6.77;;;2.47;;
9080;SDS011;13509;50.760;6.080;2023-03-05T02:48:05;9.20;;;2.20;;
9080;SDS011;13509;50.760;6.080;2023-03-05T02:50:34;6.27;;;2.00;;
9080;SDS011;13509;50.760;6.080;2023-03-05T02:53:02;6.87;;;2.30;;
9080;SDS011;13509;50.760;6.080;2023-03-05T02:55:30;6.60;;;2.67;;
9080;SDS011;13509;50.760;6.080;2023-03-05T02:58:00;6.10;;;2.43;;
9080;SDS011;13509;50.760;6.080;2023-03-05T03:00:28;6.50;;;2.83;;
9080;SDS011;13509;50.760;6.080;2023-03-05T03:02:56;10.63;;;2.90;;
9080;SDS011;13509;50.760;6.080;2023-03-05T03:05:24;8.13;;;2.90;;
9080;SDS011;13509;50.760;6.080;2023-03-05T03:07:52;7.13;;;3.20;;
9080;SDS011;13509;50.760;6.080;2023-03-05T03:10:21;11.73;;;3.43;;
9080;SDS011;13509;50.760;6.080;2023-03-05T03:12:49;5.70;;;2.87;;
9080;SDS011;13509;50.760;6.080;2023-03-05T03:15:18;10.57;;;3.10;;
9080;SDS011;13509;50.760;6.080;2023-03-05T03:17:47;11.53;;;3.33;;
9080;SDS011;13509;50.760;6.080;2023-03-05T03:20:15;14.20;;;3.77;;
9080;SDS011;13509;50.760;6.080;2023-03-05T03:22:44;9.53;;;3.00;;
9080;SDS011;13509;50.760;6.080;2023-03-05T03:25:13;7.20;;;3.30;;
9080;SDS011;13509;50.760;6.080;2023-03-05T03:27:41;8.63;;;3.17;;
9080;SDS011;13509;50.760;6.080;2023-03-05T03:30:10;12.83;;;3.60;;
9080;SDS011;13509;50.760;6.080;2023-03-05T03:32:40;12.37;;;3.80;;
9080;SDS011;13509;50.760;6.080;2023-03-05T03:35:08;9.33;;;2.90;;
9080;SDS011;13509;50.760;6.080;2023-03-05T03:37:37;10.93;;;3.93;;
9080;SDS011;13509;50.760;6.080;2023-03-05T03:40:06;14.53;;;3.97;;
9080;SDS011;13509;50.760;6.080;2023-03-05T03:42:34;11.50;;;3.60;;
9080;SDS011;13509;50.760;6.080;2023-03-05T03:45:03;12.50;;;4.33;;
9080;SDS011;13509;50.760;6.080;2023-03-05T03:47:31;10.03;;;3.77;;
9080;SDS011;13509;50.760;6.080;2023-03-05T03:50:00;9.47;;;3.47;;
9080;SDS011;13509;50.760;6.080;2023-03-05T03:52:29;8.83;;;3.23;;
9080;SDS011;13509;50.760;6.080;2023-03-05T03:54:57;12.67;;;3.30;;
9080;SDS011;13509;50.760;6.080;2023-03-05T03:57:27;7.10;;;3.03;;
9080;SDS011;13509;50.760;6.080;2023-03-05T03:59:55;9.33;;;3.80;;
9080;SDS011;13509;50.760;6.080;2023-03-05T04:02:24;11.67;;;3.23;;
9080;SDS011;13509;50.760;6.080;2023-03-05T04:04:52;7.10;;;3.63;;
9080;SDS011;13509;50.760;6.080;2023-03-05T04:07:22;7.50;;;3.37;;
9080;SDS011;13509;50.760;6.080;2023-03-05T04:09:50;8.33;;;3.53;;
9080;SDS011;13509;50.760;6.080;2023-03-05T04:12:18;10.13;;;3.20;;
9080;SDS011;13509;50.760;6.080;2023-03-05T04:14:47;6.00;;;3.33;;
9080;SDS011;13509;50.760;6.080;2023-03-05T04:17:15;7.67;;;3.20;;
9080;SDS011;13509;50.760;6.080;2023-03-05T04:19:43;10.33;;;4.20;;
9080;SDS011;13509;50.760;6.080;2023-03-05T04:22:12;10.27;;;3.83;;
9080;SDS011;13509;50.760;6.080;2023-03-05T04:24:42;12.00;;;4.03;;
9080;SDS011;13509;50.760;6.080;2023-03-05T04:27:10;7.97;;;3.97;;
9080;SDS011;13509;50.760;6.080;2023-03-05T04:29:39;7.17;;;3.60;;
9080;SDS011;13509;50.760;6.080;2023-03-05T04:32:07;14.03;;;4.40;;
9080;SDS011;13509;50.760;6.080;2023-03-05T04:34:35;10.67;;;4.27;;
9080;SDS011;13509;50.760;6.080;2023-03-05T04:37:04;9.40;;;3.50;;
9080;SDS011;13509;50.760;6.080;2023-03-05T04:39:32;14.43;;;4.13;;
9080;SDS011;13509;50.760;6.080;2023-03-05T04:42:01;9.07;;;4.67;;
9080;SDS011;13509;50.760;6.080;2023-03-05T04:44:30;9.73;;;4.00;;
9080;SDS011;13509;50.760;6.080;2023-03-05T04:46:58;9.47;;;3.60;;
9080;SDS011;13509;50.760;6.080;2023-03-05T04:49:26;12.87;;;3.83;;
9080;SDS011;13509;50.760;6.080;2023-03-05T04:51:54;8.03;;;4.10;;
9080;SDS011;13509;50.760;6.080;2023-03-05T04:54:22;8.67;;;4.03;;
9080;SDS011;13509;50.760;6.080;2023-03-05T04:56:51;9.43;;;3.97;;
9080;SDS011;13509;50.760;6.080;2023-03-05T04:59:20;10.30;;;4.00;;
9080;SDS011;13509;50.760;6.080;2023-03-05T05:01:49;9.07;;;4.00;;
9080;SDS011;13509;50.760;6.080;2023-03-05T05:04:17;7.97;;;3.53;;
9080;SDS011;13509;50.760;6.080;2023-03-05T05:06:45;10.53;;;3.80;;
9080;SDS011;13509;50.760;6.080;2023-03-05T05:09:13;8.40;;;3.67;;
9080;SDS011;13509;50.760;6.080;2023-03-05T05:11:41;13.73;;;3.83;;
9080;SDS011;13509;50.760;6.080;2023-03-05T05:14:10;8.03;;;3.80;;
9080;SDS011;13509;50.760;6.080;2023-03-05T05:16:39;10.13;;;3.87;;
9080;SDS011;13509;50.760;6.080;2023-03-05T05:19:07;9.60;;;4.00;;
9080;SDS011;13509;50.760;6.080;2023-03-05T05:21:36;12.70;;;4.23;;
9080;SDS011;13509;50.760;6.080;2023-03-05T05:24:04;9.70;;;3.33;;
9080;SDS011;13509;50.760;6.080;2023-03-05T05:26:32;11.40;;;4.07;;
9080;SDS011;13509;50.760;6.080;2023-03-05T05:29:00;10.30;;;3.47;;
9080;SDS011;13509;50.760;6.080;2023-03-05T05:31:29;8.43;;;3.17;;
9080;SDS011;13509;50.760;6.080;2023-03-05T05:33:58;9.70;;;3.47;;
9080;SDS011;13509;50.760;6.080;2023-03-05T05:36:26;9.00;;;3.60;;
9080;SDS011;13509;50.760;6.080;2023-03-05T05:38:54;10.00;;;3.43;;
9080;SDS011;13509;50.760;6.080;2023-03-05T05:41:23;10.80;;;3.40;;
9080;SDS011;13509;50.760;6.080;2023-03-05T05:43:51;11.67;;;3.27;;
9080;SDS011;13509;50.760;6.080;2023-03-05T05:46:19;7.77;;;3.20;;
9080;SDS011;13509;50.760;6.080;2023-03-05T05:48:47;8.57;;;3.63;;
9080;SDS011;13509;50.760;6.080;2023-03-05T05:51:18;11.73;;;3.27;;
9080;SDS011;13509;50.760;6.080;2023-03-05T05:53:47;15.33;;;3.80;;
9080;SDS011;13509;50.760;6.080;2023-03-05T05:56:16;6.53;;;3.33;;
9080;SDS011;13509;50.760;6.080;2023-03-05T05:58:45;7.77;;;2.90;;
9080;SDS011;13509;50.760;6.080;2023-03-05T06:01:15;7.30;;;2.87;;
9080;SDS011;13509;50.760;6.080;2023-03-05T06:03:43;9.23;;;3.47;;
9080;SDS011;13509;50.760;6.080;2023-03-05T06:06:12;10.50;;;3.93;;
9080;SDS011;13509;50.760;6.080;2023-03-05T06:08:42;9.20;;;3.10;;
9080;SDS011;13509;50.760;6.080;2023-03-05T06:11:10;6.57;;;3.27;;
9080;SDS011;13509;50.760;6.080;2023-03-05T06:13:39;13.63;;;4.33;;
9080;SDS011;13509;50.760;6.080;2023-03-05T06:16:07;9.23;;;3.37;;
9080;SDS011;13509;50.760;6.080;2023-03-05T06:18:36;15.23;;;3.90;;
9080;SDS011;13509;50.760;6.080;2023-03-05T06:21:05;7.97;;;3.80;;
9080;SDS011;13509;50.760;6.080;2023-03-05T06:23:33;9.63;;;3.33;;
9080;SDS011;13509;50.760;6.080;2023-03-05T06:26:04;7.80;;;3.60;;
9080;SDS011;13509;50.760;6.080;2023-03-05T06:28:32;11.27;;;3.63;;
9080;SDS011;13509;50.760;6.080;2023-03-05T06:31:01;8.87;;;3.97;;
9080;SDS011;13509;50.760;6.080;2023-03-05T06:33:30;10.07;;;4.03;;
9080;SDS011;13509;50.760;6.080;2023-03-05T06:35:58;9.50;;;3.87;;
9080;SDS011;13509;50.760;6.080;2023-03-05T06:38:26;8.67;;;3.67;;
9080;SDS011;13509;50.760;6.080;2023-03-05T06:40:58;11.33;;;3.60;;
9080;SDS011;13509;50.760;6.080;2023-03-05T06:43:28;10.03;;;3.80;;
9080;SDS011;13509;50.760;6.080;2023-03-05T06:46:01;10.90;;;3.73;;
9080;SDS011;13509;50.760;6.080;2023-03-05T06:48:30;6.93;;;3.27;;
9080;SDS011;13509;50.760;6.080;2023-03-05T06:50:58;9.83;;;3.57;;
9080;SDS011;13509;50.760;6.080;2023-03-05T06:53:26;9.43;;;3.87;;
9080;SDS011;13509;50.760;6.080;2023-03-05T06:55:55;9.13;;;3.73;;
9080;SDS011;13509;50.760;6.080;2023-03-05T06:58:23;9.47;;;3.63;;
9080;SDS011;13509;50.760;6.080;2023-03-05T07:00:52;11.80;;;4.23;;
9080;SDS011;13509;50.760;6.080;2023-03-05T07:03:21;8.80;;;3.57;;
9080;SDS011;13509;50.760;6.080;2023-03-05T07:05:49;7.57;;;3.97;;
9080;SDS011;13509;50.760;6.080;2023-03-05T07:08:17;8.03;;;3.80;;
9080;SDS011;13509;50.760;6.080;2023-03-05T07:10:45;8.60;;;3.60;;
9080;SDS011;13509;50.760;6.080;2023-03-05T07:13:13;9.30;;;3.50;;
9080;SDS011;13509;50.760;6.080;2023-03-05T07:15:41;7.30;;;3.63;;
9080;SDS011;13509;50.760;6.080;2023-03-05T07:18:11;10.10;;;3.90;;
9080;SDS011;13509;50.760;6.080;2023-03-05T07:20:39;7.77;;;3.50;;
9080;SDS011;13509;50.760;6.080;2023-03-05T07:23:07;8.47;;;3.40;;
9080;SDS011;13509;50.760;6.080;2023-03-05T07:25:36;8.83;;;3.13;;
9080;SDS011;13509;50.760;6.080;2023-03-05T07:28:04;7.07;;;3.30;;
9080;SDS011;13509;50.760;6.080;2023-03-05T07:30:33;7.67;;;3.17;;
9080;SDS011;13509;50.760;6.080;2023-03-05T07:33:01;7.33;;;3.20;;
9080;SDS011;13509;50.760;6.080;2023-03-05T07:35:30;5.90;;;3.30;;
9080;SDS011;13509;50.760;6.080;2023-03-05T07:37:59;6.27;;;2.50;;
9080;SDS011;13509;50.760;6.080;2023-03-05T07:40:27;5.67;;;3.00;;
9080;SDS011;13509;50.760;6.080;2023-03-05T07:42:55;5.43;;;2.53;;
9080;SDS011;13509;50.760;6.080;2023-03-05T07:45:23;7.00;;;3.20;;
9080;SDS011;13509;50.760;6.080;2023-03-05T07:47:51;5.57;;;2.83;;
9080;SDS011;13509;50.760;6.080;2023-03-05T07:50:21;8.07;;;2.63;;
9080;SDS011;13509;50.760;6.080;2023-03-05T07:52:50;12.00;;;3.17;;
9080;SDS011;13509;50.760;6.080;2023-03-05T07:55:19;5.63;;;2.70;;
9080;SDS011;13509;50.760;6.080;2023-03-05T07:57:47;9.27;;;3.10;;
9080;SDS011;13509;50.760;6.080;2023-03-05T08:00:16;5.03;;;2.70;;
9080;SDS011;13509;50.760;6.080;2023-03-05T08:02:44;7.33;;;3.17;;
9080;SDS011;13509;50.760;6.080;2023-03-05T08:05:13;7.07;;;3.30;;
9080;SDS011;13509;50.760;6.080;2023-03-05T08:07:41;9.40;;;3.27;;
9080;SDS011;13509;50.760;6.080;2023-03-05T08:10:11;5.77;;;2.70;;
9080;SDS011;13509;50.760;6.080;2023-03-05T08:12:39;7.03;;;3.17;;
9080;SDS011;13509;50.760;6.080;2023-03-05T08:15:07;7.60;;;3.53;;
9080;SDS011;13509;50.760;6.080;2023-03-05T08:17:36;6.20;;;2.87;;
9080;SDS011;13509;50.760;6.080;2023-03-05T08:20:05;4.67;;;2.83;;
9080;SDS011;13509;50.760;6.080;2023-03-05T08:22:35;7.20;;;3.33;;
9080;SDS011;13509;50.760;6.080;2023-03-05T08:25:04;7.67;;;3.43;;
9080;SDS011;13509;50.760;6.080;2023-03-05T08:27:34;8.27;;;3.60;;
9080;SDS011;13509;50.760;6.080;2023-03-05T08:30:05;9.13;;;3.83;;
9080;SDS011;13509;50.760;6.080;2023-03-05T08:32:33;7.27;;;3.47;;
9080;SDS011;13509;50.760;6.080;2023-03-05T08:35:01;10.47;;;3.50;;
9080;SDS011;13509;50.760;6.080;2023-03-05T08:37:29;7.57;;;3.60;;
9080;SDS011;13509;50.760;6.080;2023-03-05T08:39:58;8.00;;;3.63;;
9080;SDS011;13509;50.760;6.080;2023-03-05T08:42:26;11.00;;;3.90;;
9080;SDS011;13509;50.760;6.080;2023-03-05T08:44:55;6.20;;;3.37;;
9080;SDS011;13509;50.760;6.080;2023-03-05T08:47:24;8.13;;;4.07;;
9080;SDS011;13509;50.760;6.080;2023-03-05T08:49:53;7.37;;;3.67;;
9080;SDS011;13509;50.760;6.080;2023-03-05T08:52:22;14.30;;;4.40;;
9080;SDS011;13509;50.760;6.080;2023-03-05T08:54:52;8.13;;;4.00;;
9080;SDS011;13509;50.760;6.080;2023-03-05T08:57:20;9.43;;;4.83;;
9080;SDS011;13509;50.760;6.080;2023-03-05T08:59:48;15.10;;;5.10;;
9080;SDS011;13509;50.760;6.080;2023-03-05T09:02:18;9.73;;;4.97;;
9080;SDS011;13509;50.760;6.080;2023-03-05T09:04:46;12.97;;;5.37;;
9080;SDS011;13509;50.760;6.080;2023-03-05T09:07:14;12.03;;;5.30;;
9080;SDS011;13509;50.760;6.080;2023-03-05T09:09:42;13.90;;;5.27;;
9080;SDS011;13509;50.760;6.080;2023-03-05T09:12:11;8.67;;;5.53;;
9080;SDS011;13509;50.760;6.080;2023-03-05T09:14:41;8.53;;;4.70;;
9080;SDS011;13509;50.760;6.080;2023-03-05T09:17:09;12.73;;;5.13;;
9080;SDS011;13509;50.760;6.080;2023-03-05T09:19:38;11.47;;;5.30;;
9080;SDS011;13509;50.760;6.080;2023-03-05T09:22:07;10.47;;;5.40;;
9080;SDS011;13509;50.760;6.080;2023-03-05T09:24:35;11.83;;;5.40;;
9080;SDS011;13509;50.760;6.080;2023-03-05T09:27:03;8.67;;;5.23;;
9080;SDS011;13509;50.760;6.080;2023-03-05T09:29:31;11.93;;;5.43;;
9080;SDS011;13509;50.760;6.080;2023-03-05T09:31:59;10.33;;;4.87;;
9080;SDS011;13509;50.760;6.080;2023-03-05T09:34:28;9.80;;;5.47;;
9080;SDS011;13509;50.760;6.080;2023-03-05T09:36:58;10.00;;;5.40;;
9080;SDS011;13509;50.760;6.080;2023-03-05T09:39:27;9.10;;;5.43;;
9080;SDS011;13509;50.760;6.080;2023-03-05T09:42:00;11.37;;;5.40;;
9080;SDS011;13509;50.760;6.080;2023-03-05T09:44:34;14.70;;;6.03;;
9080;SDS011;13509;50.760;6.080;2023-03-05T09:47:07;17.23;;;7.73;;
9080;SDS011;13509;50.760;6.080;2023-03-05T09:49:42;13.40;;;7.43;;
9080;SDS011;13509;50.760;6.080;2023-03-05T09:52:14;14.00;;;8.27;;
9080;SDS011;13509;50.760;6.080;2023-03-05T09:54:46;18.23;;;8.07;;
9080;SDS011;13509;50.760;6.080;2023-03-05T09:57:15;13.10;;;8.60;;
9080;SDS011;13509;50.760;6.080;2023-03-05T09:59:46;15.87;;;9.07;;
9080;SDS011;13509;50.760;6.080;2023-03-05T10:02:17;22.20;;;10.63;;
9080;SDS011;13509;50.760;6.080;2023-03-05T10:04:47;17.60;;;10.53;;
9080;SDS011;13509;50.760;6.080;2023-03-05T10:07:17;20.43;;;9.83;;
9080;SDS011;13509;50.760;6.080;2023-03-05T10:09:47;16.20;;;9.90;;
9080;SDS011;13509;50.760;6.080;2023-03-05T10:12:19;16.13;;;9.37;;
9080;SDS011;13509;50.760;6.080;2023-03-05T10:14:52;14.30;;;9.40;;
9080;SDS011;13509;50.760;6.080;2023-03-05T10:20:21;15.77;;;9.27;;
9080;SDS011;13509;50.760;6.080;2023-03-05T10:25:47;12.07;;;6.73;;
9080;SDS011;13509;50.760;6.080;2023-03-05T10:28:17;11.70;;;6.63;;
9080;SDS011;13509;50.760;6.080;2023-03-05T10:30:51;10.20;;;6.80;;
9080;SDS011;13509;50.760;6.080;2023-03-05T10:33:24;7.80;;;5.43;;
9080;SDS011;13509;50.760;6.080;2023-03-05T10:36:06;10.63;;;5.23;;
9080;SDS011;13509;50.760;6.080;2023-03-05T10:41:25;6.60;;;4.53;;
9080;SDS011;13509;50.760;6.080;2023-03-05T10:43:58;8.47;;;4.60;;
9080;SDS011;13509;50.760;6.080;2023-03-05T10:46:30;7.27;;;4.77;;
9080;SDS011;13509;50.760;6.080;2023-03-05T10:48:59;8.43;;;4.37;;
9080;SDS011;13509;50.760;6.080;2023-03-05T10:51:32;7.90;;;4.60;;
9080;SDS011;13509;50.760;6.080;2023-03-05T10:54:01;8.30;;;4.30;;
9080;SDS011;13509;50.760;6.080;2023-03-05T10:56:32;6.30;;;4.20;;
9080;SDS011;13509;50.760;6.080;2023-03-05T10:59:00;7.50;;;4.50;;
9080;SDS011;13509;50.760;6.080;2023-03-05T11:01:28;7.23;;;4.63;;
9080;SDS011;13509;50.760;6.080;2023-03-05T11:03:59;6.50;;;4.73;;
9080;SDS011;13509;50.760;6.080;2023-03-05T11:06:30;7.03;;;4.33;;
9080;SDS011;13509;50.760;6.080;2023-03-05T11:09:15;6.27;;;4.37;;
9080;SDS011;13509;50.760;6.080;2023-03-05T11:11:45;7.10;;;4.30;;
9080;SDS011;13509;50.760;6.080;2023-03-05T11:14:28;8.53;;;4.23;;
9080;SDS011;13509;50.760;6.080;2023-03-05T11:16:58;6.43;;;4.10;;
9080;SDS011;13509;50.760;6.080;2023-03-05T11:19:27;7.40;;;3.87;;
9080;SDS011;13509;50.760;6.080;2023-03-05T11:22:05;5.90;;;4.20;;
9080;SDS011;13509;50.760;6.080;2023-03-05T11:24:35;7.07;;;4.17;;
9080;SDS011;13509;50.760;6.080;2023-03-05T11:29:48;7.47;;;4.30;;
9080;SDS011;13509;50.760;6.080;2023-03-05T11:32:19;6.73;;;3.80;;
9080;SDS011;13509;50.760;6.080;2023-03-05T11:34:48;5.63;;;3.40;;
9080;SDS011;13509;50.760;6.080;2023-03-05T11:37:21;6.53;;;3.73;;
9080;SDS011;13509;50.760;6.080;2023-03-05T11:40:04;7.13;;;3.93;;
9080;SDS011;13509;50.760;6.080;2023-03-05T11:42:33;4.80;;;3.10;;
9080;SDS011;13509;50.760;6.080;2023-03-05T11:45:03;5.27;;;3.07;;
9080;SDS011;13509;50.760;6.080;2023-03-05T11:47:32;5.40;;;2.93;;
9080;SDS011;13509;50.760;6.080;2023-03-05T11:50:04;6.93;;;3.20;;
9080;SDS011;13509;50.760;6.080;2023-03-05T11:52:39;3.43;;;2.83;;
9080;SDS011;13509;50.760;6.080;2023-03-05T11:55:09;4.60;;;3.10;;
9080;SDS011;13509;50.760;6.080;2023-03-05T11:57:41;8.33;;;3.37;;
9080;SDS011;13509;50.760;6.080;2023-03-05T12:00:14;7.40;;;3.50;;
9080;SDS011;13509;50.760;6.080;2023-03-05T12:02:42;6.10;;;3.77;;
9080;SDS011;13509;50.760;6.080;2023-03-05T12:05:14;6.40;;;4.13;;
9080;SDS011;13509;50.760;6.080;2023-03-05T12:07:43;8.00;;;4.10;;
9080;SDS011;13509;50.760;6.080;2023-03-05T12:10:14;4.50;;;3.50;;
9080;SDS011;13509;50.760;6.080;2023-03-05T12:12:45;5.23;;;3.90;;
9080;SDS011;13509;50.760;6.080;2023-03-05T12:15:22;5.37;;;3.57;;
9080;SDS011;13509;50.760;6.080;2023-03-05T12:17:53;6.63;;;3.53;;
9080;SDS011;13509;50.760;6.080;2023-03-05T12:20:26;4.83;;;3.50;;
9080;SDS011;13509;50.760;6.080;2023-03-05T12:22:58;10.40;;;4.57;;
9080;SDS011;13509;50.760;6.080;2023-03-05T12:25:29;5.10;;;4.20;;
9080;SDS011;13509;50.760;6.080;2023-03-05T12:27:59;5.47;;;4.07;;
9080;SDS011;13509;50.760;6.080;2023-03-05T12:33:29;5.30;;;3.63;;
9080;SDS011;13509;50.760;6.080;2023-03-05T12:38:44;5.13;;;3.43;;
9080;SDS011;13509;50.760;6.080;2023-03-05T12:44:19;7.10;;;4.87;;
9080;SDS011;13509;50.760;6.080;2023-03-05T12:49:38;7.13;;;5.27;;
9080;SDS011;13509;50.760;6.080;2023-03-05T12:52:10;10.57;;;5.30;;
9080;SDS011;13509;50.760;6.080;2023-03-05T12:54:39;8.70;;;5.97;;
9080;SDS011;13509;50.760;6.080;2023-03-05T12:57:14;10.17;;;5.83;;
9080;SDS011;13509;50.760;6.080;2023-03-05T12:59:46;11.93;;;6.10;;
9080;SDS011;13509;50.760;6.080;2023-03-05T13:02:22;9.10;;;5.60;;
9080;SDS011;13509;50.760;6.080;2023-03-05T13:04:56;7.63;;;5.87;;
9080;SDS011;13509;50.760;6.080;2023-03-05T13:07:25;9.73;;;5.47;;
9080;SDS011;13509;50.760;6.080;2023-03-05T13:09:54;8.90;;;5.63;;
9080;SDS011;13509;50.760;6.080;2023-03-05T13:12:23;7.77;;;4.77;;
9080;SDS011;13509;50.760;6.080;2023-03-05T13:14:56;6.43;;;4.80;;
9080;SDS011;13509;50.760;6.080;2023-03-05T13:17:26;7.60;;;5.40;;
9080;SDS011;13509;50.760;6.080;2023-03-05T13:19:55;7.37;;;4.90;;
9080;SDS011;13509;50.760;6.080;2023-03-05T13:22:24;7.67;;;5.63;;
9080;SDS011;13509;50.760;6.080;2023-03-05T13:25:03;7.37;;;4.87;;
9080;SDS011;13509;50.760;6.080;2023-03-05T13:27:31;6.47;;;4.10;;
9080;SDS011;13509;50.760;6.080;2023-03-05T13:30:00;6.87;;;4.50;;
9080;SDS011;13509;50.760;6.080;2023-03-05T13:32:29;5.97;;;4.40;;
9080;SDS011;13509;50.760;6.080;2023-03-05T13:34:58;6.37;;;4.07;;
9080;SDS011;13509;50.760;6.080;2023-03-05T13:37:28;6.30;;;4.50;;
9080;SDS011;13509;50.760;6.080;2023-03-05T13:39:57;7.57;;;4.10;;
9080;SDS011;13509;50.760;6.080;2023-03-05T13:42:27;4.53;;;4.13;;
9080;SDS011;13509;50.760;6.080;2023-03-05T13:44:57;5.30;;;4.00;;
9080;SDS011;13509;50.760;6.080;2023-03-05T13:47:26;5.47;;;4.63;;
9080;SDS011;13509;50.760;6.080;2023-03-05T13:49:56;6.43;;;4.33;;
9080;SDS011;13509;50.760;6.080;2023-03-05T13:52:25;4.40;;;3.57;;
9080;SDS011;13509;50.760;6.080;2023-03-05T13:54:56;5.73;;;4.50;;
9080;SDS011;13509;50.760;6.080;2023-03-05T13:57:32;7.30;;;4.53;;
9080;SDS011;13509;50.760;6.080;2023-03-05T14:00:01;5.60;;;4.70;;
9080;SDS011;13509;50.760;6.080;2023-03-05T14:02:29;4.83;;;4.03;;
9080;SDS011;13509;50.760;6.080;2023-03-05T14:04:58;5.57;;;4.43;;
9080;SDS011;13509;50.760;6.080;2023-03-05T14:07:28;7.23;;;4.73;;
9080;SDS011;13509;50.760;6.080;2023-03-05T14:09:59;6.60;;;4.40;;
9080;SDS011;13509;50.760;6.080;2023-03-05T14:12:29;7.27;;;5.13;;
9080;SDS011;13509;50.760;6.080;2023-03-05T14:15:00;6.87;;;4.67;;
9080;SDS011;13509;50.760;6.080;2023-03-05T14:17:36;7.33;;;4.70;;
9080;SDS011;13509;50.760;6.080;2023-03-05T14:20:05;7.33;;;4.37;;
9080;SDS011;13509;50.760;6.080;2023-03-05T14:22:35;7.20;;;4.40;;
9080;SDS011;13509;50.760;6.080;2023-03-05T14:25:06;8.20;;;4.80;;
9080;SDS011;13509;50.760;6.080;2023-03-05T14:27:52;10.23;;;5.27;;
9080;SDS011;13509;50.760;6.080;2023-03-05T14:30:20;6.67;;;5.43;;
9080;SDS011;13509;50.760;6.080;2023-03-05T14:32:49;6.50;;;4.60;;
9080;SDS011;13509;50.760;6.080;2023-03-05T14:35:18;7.40;;;4.70;;
9080;SDS011;13509;50.760;6.080;2023-03-05T14:37:48;6.10;;;4.93;;
9080;SDS011;13509;50.760;6.080;2023-03-05T14:40:19;7.53;;;4.43;;
9080;SDS011;13509;50.760;6.080;2023-03-05T14:42:51;7.07;;;4.80;;
9080;SDS011;13509;50.760;6.080;2023-03-05T14:45:21;8.30;;;5.27;;
9080;SDS011;13509;50.760;6.080;2023-03-05T14:47:50;8.63;;;5.63;;
9080;SDS011;13509;50.760;6.080;2023-03-05T14:50:19;8.30;;;5.40;;
9080;SDS011;13509;50.760;6.080;2023-03-05T14:52:48;6.30;;;4.50;;
9080;SDS011;13509;50.760;6.080;2023-03-05T14:55:19;8.57;;;5.07;;
9080;SDS011;13509;50.760;6.080;2023-03-05T14:57:48;5.27;;;4.40;;
9080;SDS011;13509;50.760;6.080;2023-03-05T15:00:17;5.93;;;4.80;;
9080;SDS011;13509;50.760;6.080;2023-03-05T15:02:46;6.93;;;4.40;;
9080;SDS011;13509;50.760;6.080;2023-03-05T15:05:14;4.57;;;4.10;;
9080;SDS011;13509;50.760;6.080;2023-03-05T15:07:42;5.87;;;3.70;;
9080;SDS011;13509;50.760;6.080;2023-03-05T15:10:10;5.63;;;3.93;;
9080;SDS011;13509;50.760;6.080;2023-03-05T15:12:42;5.60;;;4.03;;
9080;SDS011;13509;50.760;6.080;2023-03-05T15:15:11;4.87;;;3.50;;
9080;SDS011;13509;50.760;6.080;2023-03-05T15:17:40;4.23;;;3.63;;
9080;SDS011;13509;50.760;6.080;2023-03-05T15:20:10;3.97;;;3.50;;
9080;SDS011;13509;50.760;6.080;2023-03-05T15:22:41;6.80;;;3.63;;
9080;SDS011;13509;50.760;6.080;2023-03-05T15:25:09;4.83;;;3.67;;
9080;SDS011;13509;50.760;6.080;2023-03-05T15:27:38;5.90;;;3.23;;
9080;SDS011;13509;50.760;6.080;2023-03-05T15:30:10;5.37;;;3.67;;
9080;SDS011;13509;50.760;6.080;2023-03-05T15:32:41;3.30;;;3.00;;
9080;SDS011;13509;50.760;6.080;2023-03-05T15:35:09;3.13;;;2.83;;
9080;SDS011;13509;50.760;6.080;2023-03-05T15:37:37;3.33;;;3.03;;